Charlottesville (CHO/KCHO)

Map

Destinations

Information

Location
Charlottesville, VA
Local Time
07:52 / 7:52 am
GMT Time
12:52 / 12:52 pm
Gates
Unassigned
No FAA reported delays
METAR KCHO 161227Z 00000KT 10SM OVC004 04/02 A3042 RMK AO2 T00390022
TAF KCHO 161129Z 1612/1712 00000KT P6SM OVC008
  • No charts available